Apulia Station, NY

6:16 AM EDT on April 26, 2015 (GMT -0400)
Apulia Station | | Change Station
CLOSE
Current Station
Personal Weather Station
Location: Apulia Station, NY
Elevation: 1279 ft
Nearby Weather Stations

Elev 1279 ft 42.83 °N, 76.08 °W | Updated 1 minute ago

Partly Cloudy
Partly Cloudy
27.0 °F
Feels Like 22 °F
N
4.5
Wind Variable Wind from SW
Gusts 5.4 mph

Today
High -- | Low -- °F
--% Chance of Precip.
Yesterday
High -- | Low -- °F
Precip. -- in
6:06 AM 7:58 PM
First Quarter, 54% visible
Pressure 29.76 in
Visibility 10.0 miles
Clouds Clear
Windchill 22 °F
Dew Point 25 °F
Humidity 91%
Rainfall 0.00 in
Snow Depth Not available.
UV 0 out of 12
Pollen 8.70 out of 12
Air Quality Not available.
Flu Activity Widespread
METAR KN03 261015Z AUTO 00000KT 10SM CLR M03/M03 A2976 RMK AO2

More Conditions Fewer Conditions

Pressure 29.76 in
Visibility 10.0 miles
Clouds Clear
Windchill 22 °F
Dew Point 25 °F
Humidity 91%
Rainfall 0.00 in
Snow Depth Not available.
UV 0 out of 12
Pollen 8.70 out of 12
Air Quality Not available.
Flu Activity Widespread
METAR KN03 261015Z AUTO 00000KT 10SM CLR M03/M03 A2976 RMK AO2

More Conditions Fewer Conditions

The full scope of the disaster following a powerful 7.8-magnitude earthquake in Nepal may not come into view for days, but global charities are already sending emergency aid. Click to see how you can help.

10-Day Weather Forecast

Almanac

Astronomy

Apr. 26, 2015 Rise Set
Actual Time
Civil Twilight
Nautical Twilight
Astronomical Twilight
Moon
Length of Visible Light
Length of Day
Tomorrow will be .
, % of the Moon is Illuminated

Today's Extremes

State Highs State Lows

Community

WunderPhotos

Upload Photos

1,816,960 photos uploaded!

WunderBlogs® & News

Nearby

Air Quality

  Air Quality AQ Index Pollutant
Not available.

Snow Depth

Station Depth Elevation

Earthquake Activity

City Distance Mag. Time & Date
Minimum magnitude displayed is 2.5.

Coastal Water Temperatures

Place Temperature

Stations

Nearby Weather Stations

Station Location Temp. Windchill Dew Point Humidity Wind Precip. Elev Updated Type